sensor_id;sensor_type;location;lat;lon;timestamp;P1;durP1;ratioP1;P2;durP2;ratioP2
69319;SDS011;56467;53.502;49.248;2022-09-09T00:04:00;3.70;;;2.60;;
69319;SDS011;56467;53.502;49.248;2022-09-09T00:06:48;3.47;;;2.20;;
69319;SDS011;56467;53.502;49.248;2022-09-09T00:09:17;3.75;;;2.55;;
69319;SDS011;56467;53.502;49.248;2022-09-09T00:20:01;3.40;;;2.30;;
69319;SDS011;56467;53.502;49.248;2022-09-09T00:22:36;3.40;;;2.20;;
69319;SDS011;56467;53.502;49.248;2022-09-09T00:25:10;2.95;;;2.10;;
69319;SDS011;56467;53.502;49.248;2022-09-09T00:30:15;3.10;;;2.10;;
69319;SDS011;56467;53.502;49.248;2022-09-09T00:32:46;2.60;;;2.03;;
69319;SDS011;56467;53.502;49.248;2022-09-09T00:35:18;2.58;;;2.00;;
69319;SDS011;56467;53.502;49.248;2022-09-09T00:37:44;2.17;;;1.80;;
69319;SDS011;56467;53.502;49.248;2022-09-09T00:43:07;11.38;;;6.30;;
69319;SDS011;56467;53.502;49.248;2022-09-09T00:48:24;9.88;;;5.47;;
69319;SDS011;56467;53.502;49.248;2022-09-09T00:51:03;7.78;;;4.30;;
69319;SDS011;56467;53.502;49.248;2022-09-09T00:56:48;7.57;;;3.88;;
69319;SDS011;56467;53.502;49.248;2022-09-09T01:02:26;5.63;;;3.33;;
69319;SDS011;56467;53.502;49.248;2022-09-09T01:08:13;4.77;;;3.00;;
69319;SDS011;56467;53.502;49.248;2022-09-09T01:10:53;5.50;;;2.85;;
69319;SDS011;56467;53.502;49.248;2022-09-09T01:13:24;4.32;;;2.70;;
69319;SDS011;56467;53.502;49.248;2022-09-09T01:15:55;4.05;;;2.30;;
69319;SDS011;56467;53.502;49.248;2022-09-09T01:18:28;5.32;;;2.30;;
69319;SDS011;56467;53.502;49.248;2022-09-09T01:28:59;4.20;;;2.10;;
69319;SDS011;56467;53.502;49.248;2022-09-09T01:31:33;2.80;;;2.00;;
69319;SDS011;56467;53.502;49.248;2022-09-09T01:34:00;3.35;;;1.98;;
69319;SDS011;56467;53.502;49.248;2022-09-09T01:37:02;3.17;;;1.67;;
69319;SDS011;56467;53.502;49.248;2022-09-09T01:39:21;2.83;;;1.80;;
69319;SDS011;56467;53.502;49.248;2022-09-09T01:41:47;3.72;;;1.98;;
69319;SDS011;56467;53.502;49.248;2022-09-09T01:44:13;3.65;;;1.90;;
69319;SDS011;56467;53.502;49.248;2022-09-09T01:46:39;3.00;;;1.75;;
69319;SDS011;56467;53.502;49.248;2022-09-09T01:49:05;3.85;;;1.90;;
69319;SDS011;56467;53.502;49.248;2022-09-09T01:51:33;3.22;;;1.90;;
69319;SDS011;56467;53.502;49.248;2022-09-09T01:54:00;3.17;;;1.80;;
69319;SDS011;56467;53.502;49.248;2022-09-09T01:59:28;2.85;;;1.90;;
69319;SDS011;56467;53.502;49.248;2022-09-09T02:04:44;2.10;;;1.58;;
69319;SDS011;56467;53.502;49.248;2022-09-09T02:10:05;2.53;;;1.60;;
69319;SDS011;56467;53.502;49.248;2022-09-09T02:12:43;1.73;;;1.50;;
69319;SDS011;56467;53.502;49.248;2022-09-09T02:15:16;1.93;;;1.50;;
69319;SDS011;56467;53.502;49.248;2022-09-09T02:17:48;2.50;;;1.50;;
69319;SDS011;56467;53.502;49.248;2022-09-09T02:20:16;2.38;;;1.50;;
69319;SDS011;56467;53.502;49.248;2022-09-09T02:22:44;2.33;;;1.33;;
69319;SDS011;56467;53.502;49.248;2022-09-09T02:25:15;2.50;;;1.48;;
69319;SDS011;56467;53.502;49.248;2022-09-09T02:27:44;2.17;;;1.48;;
69319;SDS011;56467;53.502;49.248;2022-09-09T02:30:13;2.58;;;1.40;;
69319;SDS011;56467;53.502;49.248;2022-09-09T02:32:40;2.20;;;1.40;;
69319;SDS011;56467;53.502;49.248;2022-09-09T02:35:10;1.90;;;1.40;;
69319;SDS011;56467;53.502;49.248;2022-09-09T02:37:39;1.63;;;1.30;;
69319;SDS011;56467;53.502;49.248;2022-09-09T02:40:08;1.52;;;1.30;;
69319;SDS011;56467;53.502;49.248;2022-09-09T02:42:42;2.08;;;1.42;;
69319;SDS011;56467;53.502;49.248;2022-09-09T02:45:10;1.33;;;1.20;;
69319;SDS011;56467;53.502;49.248;2022-09-09T02:56:39;1.67;;;1.17;;
69319;SDS011;56467;53.502;49.248;2022-09-09T02:59:09;1.40;;;1.10;;
69319;SDS011;56467;53.502;49.248;2022-09-09T03:01:35;1.70;;;1.13;;
69319;SDS011;56467;53.502;49.248;2022-09-09T03:04:01;1.88;;;1.42;;
69319;SDS011;56467;53.502;49.248;2022-09-09T03:06:30;1.33;;;1.08;;
69319;SDS011;56467;53.502;49.248;2022-09-09T03:08:55;1.27;;;1.17;;
69319;SDS011;56467;53.502;49.248;2022-09-09T03:11:22;1.30;;;1.10;;
69319;SDS011;56467;53.502;49.248;2022-09-09T03:13:48;1.70;;;1.30;;
69319;SDS011;56467;53.502;49.248;2022-09-09T03:16:14;1.10;;;1.00;;
69319;SDS011;56467;53.502;49.248;2022-09-09T03:18:40;1.33;;;1.20;;
69319;SDS011;56467;53.502;49.248;2022-09-09T03:21:06;1.30;;;1.05;;
69319;SDS011;56467;53.502;49.248;2022-09-09T03:23:32;1.30;;;1.10;;
69319;SDS011;56467;53.502;49.248;2022-09-09T03:25:57;1.40;;;1.10;;
69319;SDS011;56467;53.502;49.248;2022-09-09T03:28:23;1.10;;;1.00;;
69319;SDS011;56467;53.502;49.248;2022-09-09T03:30:58;1.20;;;1.02;;
69319;SDS011;56467;53.502;49.248;2022-09-09T03:33:30;1.40;;;1.13;;
69319;SDS011;56467;53.502;49.248;2022-09-09T03:35:56;1.42;;;1.10;;
69319;SDS011;56467;53.502;49.248;2022-09-09T03:38:23;1.70;;;1.10;;
69319;SDS011;56467;53.502;49.248;2022-09-09T03:40:53;0.90;;;0.90;;
69319;SDS011;56467;53.502;49.248;2022-09-09T03:43:22;0.98;;;0.98;;
69319;SDS011;56467;53.502;49.248;2022-09-09T03:45:49;1.67;;;1.20;;
69319;SDS011;56467;53.502;49.248;2022-09-09T03:48:16;1.10;;;1.00;;
69319;SDS011;56467;53.502;49.248;2022-09-09T03:50:49;1.60;;;0.93;;
69319;SDS011;56467;53.502;49.248;2022-09-09T03:53:17;1.00;;;0.90;;
69319;SDS011;56467;53.502;49.248;2022-09-09T03:55:49;0.98;;;0.88;;
69319;SDS011;56467;53.502;49.248;2022-09-09T03:58:19;1.33;;;1.00;;
69319;SDS011;56467;53.502;49.248;2022-09-09T04:01:08;1.23;;;1.00;;
69319;SDS011;56467;53.502;49.248;2022-09-09T04:03:35;1.40;;;1.00;;
69319;SDS011;56467;53.502;49.248;2022-09-09T04:06:03;1.10;;;1.00;;
69319;SDS011;56467;53.502;49.248;2022-09-09T04:08:30;1.42;;;1.08;;
69319;SDS011;56467;53.502;49.248;2022-09-09T04:10:56;1.10;;;1.00;;
69319;SDS011;56467;53.502;49.248;2022-09-09T04:13:23;0.95;;;0.90;;
69319;SDS011;56467;53.502;49.248;2022-09-09T04:15:51;1.17;;;1.00;;
69319;SDS011;56467;53.502;49.248;2022-09-09T04:18:21;0.85;;;0.80;;
69319;SDS011;56467;53.502;49.248;2022-09-09T04:20:50;1.00;;;0.90;;
69319;SDS011;56467;53.502;49.248;2022-09-09T04:23:18;1.10;;;0.90;;
69319;SDS011;56467;53.502;49.248;2022-09-09T04:25:49;0.90;;;0.90;;
69319;SDS011;56467;53.502;49.248;2022-09-09T04:28:18;1.03;;;0.90;;
69319;SDS011;56467;53.502;49.248;2022-09-09T04:30:45;1.92;;;1.00;;
69319;SDS011;56467;53.502;49.248;2022-09-09T04:33:12;1.20;;;0.90;;
69319;SDS011;56467;53.502;49.248;2022-09-09T04:35:38;1.27;;;1.00;;
69319;SDS011;56467;53.502;49.248;2022-09-09T04:38:05;1.48;;;0.90;;
69319;SDS011;56467;53.502;49.248;2022-09-09T04:40:34;0.95;;;0.80;;
69319;SDS011;56467;53.502;49.248;2022-09-09T04:43:01;0.80;;;0.80;;
69319;SDS011;56467;53.502;49.248;2022-09-09T04:45:30;1.13;;;1.00;;
69319;SDS011;56467;53.502;49.248;2022-09-09T04:47:57;1.10;;;0.88;;
69319;SDS011;56467;53.502;49.248;2022-09-09T04:50:22;1.25;;;0.82;;
69319;SDS011;56467;53.502;49.248;2022-09-09T04:52:48;0.98;;;0.90;;
69319;SDS011;56467;53.502;49.248;2022-09-09T04:55:14;0.88;;;0.80;;
69319;SDS011;56467;53.502;49.248;2022-09-09T04:57:40;1.10;;;0.93;;
69319;SDS011;56467;53.502;49.248;2022-09-09T05:00:06;1.00;;;0.70;;
69319;SDS011;56467;53.502;49.248;2022-09-09T05:02:33;1.17;;;0.90;;
69319;SDS011;56467;53.502;49.248;2022-09-09T05:05:03;1.10;;;1.00;;
69319;SDS011;56467;53.502;49.248;2022-09-09T05:07:29;1.15;;;1.00;;
69319;SDS011;56467;53.502;49.248;2022-09-09T05:09:56;1.00;;;0.90;;
69319;SDS011;56467;53.502;49.248;2022-09-09T05:12:22;0.90;;;0.90;;
69319;SDS011;56467;53.502;49.248;2022-09-09T05:14:50;0.82;;;0.77;;
69319;SDS011;56467;53.502;49.248;2022-09-09T05:17:17;0.88;;;0.77;;
69319;SDS011;56467;53.502;49.248;2022-09-09T05:19:43;1.13;;;0.90;;
69319;SDS011;56467;53.502;49.248;2022-09-09T05:22:09;0.93;;;0.88;;
69319;SDS011;56467;53.502;49.248;2022-09-09T05:24:37;0.90;;;0.75;;
69319;SDS011;56467;53.502;49.248;2022-09-09T05:27:03;0.95;;;0.85;;
69319;SDS011;56467;53.502;49.248;2022-09-09T05:29:31;1.05;;;0.73;;
69319;SDS011;56467;53.502;49.248;2022-09-09T05:31:58;1.45;;;1.10;;
69319;SDS011;56467;53.502;49.248;2022-09-09T05:34:25;0.88;;;0.82;;
69319;SDS011;56467;53.502;49.248;2022-09-09T05:36:50;0.98;;;0.85;;
69319;SDS011;56467;53.502;49.248;2022-09-09T05:39:17;0.70;;;0.70;;
69319;SDS011;56467;53.502;49.248;2022-09-09T05:41:43;1.15;;;0.70;;
69319;SDS011;56467;53.502;49.248;2022-09-09T05:44:09;0.93;;;0.70;;
69319;SDS011;56467;53.502;49.248;2022-09-09T05:46:34;1.65;;;0.80;;
69319;SDS011;56467;53.502;49.248;2022-09-09T05:49:01;0.80;;;0.73;;
69319;SDS011;56467;53.502;49.248;2022-09-09T05:51:27;0.50;;;0.50;;
69319;SDS011;56467;53.502;49.248;2022-09-09T05:53:55;0.70;;;0.70;;
69319;SDS011;56467;53.502;49.248;2022-09-09T05:56:24;0.70;;;0.70;;
69319;SDS011;56467;53.502;49.248;2022-09-09T05:58:52;0.70;;;0.70;;
69319;SDS011;56467;53.502;49.248;2022-09-09T06:01:22;0.77;;;0.77;;
69319;SDS011;56467;53.502;49.248;2022-09-09T06:03:53;0.95;;;0.90;;
69319;SDS011;56467;53.502;49.248;2022-09-09T06:06:20;0.50;;;0.50;;
69319;SDS011;56467;53.502;49.248;2022-09-09T06:08:49;0.70;;;0.70;;
69319;SDS011;56467;53.502;49.248;2022-09-09T06:13:46;0.90;;;0.88;;
69319;SDS011;56467;53.502;49.248;2022-09-09T06:16:17;0.85;;;0.80;;
69319;SDS011;56467;53.502;49.248;2022-09-09T06:18:43;0.82;;;0.70;;
69319;SDS011;56467;53.502;49.248;2022-09-09T06:21:32;0.85;;;0.70;;
69319;SDS011;56467;53.502;49.248;2022-09-09T06:23:59;0.63;;;0.63;;
69319;SDS011;56467;53.502;49.248;2022-09-09T06:26:26;0.70;;;0.70;;
69319;SDS011;56467;53.502;49.248;2022-09-09T06:28:55;0.60;;;0.60;;
69319;SDS011;56467;53.502;49.248;2022-09-09T06:31:23;0.70;;;0.70;;
69319;SDS011;56467;53.502;49.248;2022-09-09T06:33:52;0.70;;;0.70;;
69319;SDS011;56467;53.502;49.248;2022-09-09T06:36:19;0.80;;;0.70;;
69319;SDS011;56467;53.502;49.248;2022-09-09T06:38:49;1.00;;;0.80;;
69319;SDS011;56467;53.502;49.248;2022-09-09T06:41:18;0.90;;;0.90;;
69319;SDS011;56467;53.502;49.248;2022-09-09T06:43:45;1.05;;;0.68;;
69319;SDS011;56467;53.502;49.248;2022-09-09T06:46:12;0.40;;;0.40;;
69319;SDS011;56467;53.502;49.248;2022-09-09T06:48:40;0.70;;;0.70;;
69319;SDS011;56467;53.502;49.248;2022-09-09T06:51:08;0.50;;;0.50;;
69319;SDS011;56467;53.502;49.248;2022-09-09T06:53:39;0.70;;;0.70;;
69319;SDS011;56467;53.502;49.248;2022-09-09T06:56:19;0.60;;;0.60;;
69319;SDS011;56467;53.502;49.248;2022-09-09T06:58:47;1.35;;;0.60;;
69319;SDS011;56467;53.502;49.248;2022-09-09T07:01:18;1.10;;;0.65;;
69319;SDS011;56467;53.502;49.248;2022-09-09T07:03:46;1.43;;;0.60;;
69319;SDS011;56467;53.502;49.248;2022-09-09T07:06:19;0.65;;;0.55;;
69319;SDS011;56467;53.502;49.248;2022-09-09T07:08:49;0.88;;;0.60;;
69319;SDS011;56467;53.502;49.248;2022-09-09T07:11:16;0.93;;;0.60;;
69319;SDS011;56467;53.502;49.248;2022-09-09T07:13:43;0.70;;;0.50;;
69319;SDS011;56467;53.502;49.248;2022-09-09T07:16:12;0.75;;;0.60;;
69319;SDS011;56467;53.502;49.248;2022-09-09T07:18:40;1.08;;;0.60;;
69319;SDS011;56467;53.502;49.248;2022-09-09T07:21:07;0.40;;;0.40;;
69319;SDS011;56467;53.502;49.248;2022-09-09T07:23:34;0.82;;;0.70;;
69319;SDS011;56467;53.502;49.248;2022-09-09T07:26:07;0.60;;;0.60;;
69319;SDS011;56467;53.502;49.248;2022-09-09T07:28:44;1.65;;;0.55;;
69319;SDS011;56467;53.502;49.248;2022-09-09T07:31:14;0.90;;;0.63;;
69319;SDS011;56467;53.502;49.248;2022-09-09T07:33:42;0.50;;;0.50;;
69319;SDS011;56467;53.502;49.248;2022-09-09T07:36:18;0.70;;;0.70;;
69319;SDS011;56467;53.502;49.248;2022-09-09T07:38:48;3.10;;;0.60;;
69319;SDS011;56467;53.502;49.248;2022-09-09T07:41:23;0.50;;;0.50;;
69319;SDS011;56467;53.502;49.248;2022-09-09T07:43:55;0.93;;;0.63;;
69319;SDS011;56467;53.502;49.248;2022-09-09T07:46:23;0.68;;;0.40;;
69319;SDS011;56467;53.502;49.248;2022-09-09T07:48:54;0.52;;;0.52;;
69319;SDS011;56467;53.502;49.248;2022-09-09T07:51:25;1.75;;;0.60;;
69319;SDS011;56467;53.502;49.248;2022-09-09T07:53:53;0.80;;;0.60;;
69319;SDS011;56467;53.502;49.248;2022-09-09T07:56:23;0.60;;;0.47;;
69319;SDS011;56467;53.502;49.248;2022-09-09T07:58:50;0.60;;;0.60;;
69319;SDS011;56467;53.502;49.248;2022-09-09T08:01:20;0.95;;;0.50;;
69319;SDS011;56467;53.502;49.248;2022-09-09T08:03:52;0.50;;;0.50;;
69319;SDS011;56467;53.502;49.248;2022-09-09T08:06:46;0.40;;;0.40;;
69319;SDS011;56467;53.502;49.248;2022-09-09T08:09:14;0.50;;;0.50;;
69319;SDS011;56467;53.502;49.248;2022-09-09T08:11:40;1.25;;;0.50;;
69319;SDS011;56467;53.502;49.248;2022-09-09T08:14:07;0.50;;;0.50;;
69319;SDS011;56467;53.502;49.248;2022-09-09T08:16:39;0.50;;;0.50;;
69319;SDS011;56467;53.502;49.248;2022-09-09T08:19:06;0.40;;;0.40;;
69319;SDS011;56467;53.502;49.248;2022-09-09T08:21:33;0.65;;;0.40;;
69319;SDS011;56467;53.502;49.248;2022-09-09T08:24:02;0.95;;;0.60;;
69319;SDS011;56467;53.502;49.248;2022-09-09T08:26:31;0.70;;;0.60;;
69319;SDS011;56467;53.502;49.248;2022-09-09T08:28:59;1.50;;;0.50;;
69319;SDS011;56467;53.502;49.248;2022-09-09T08:31:27;1.17;;;0.50;;
69319;SDS011;56467;53.502;49.248;2022-09-09T08:33:56;0.40;;;0.40;;
69319;SDS011;56467;53.502;49.248;2022-09-09T08:36:26;1.05;;;0.50;;
69319;SDS011;56467;53.502;49.248;2022-09-09T08:38:54;0.68;;;0.50;;
69319;SDS011;56467;53.502;49.248;2022-09-09T08:44:19;1.73;;;0.68;;
69319;SDS011;56467;53.502;49.248;2022-09-09T08:46:46;0.40;;;0.40;;
69319;SDS011;56467;53.502;49.248;2022-09-09T08:52:22;0.60;;;0.40;;
69319;SDS011;56467;53.502;49.248;2022-09-09T08:54:52;0.30;;;0.30;;
69319;SDS011;56467;53.502;49.248;2022-09-09T08:57:25;1.40;;;0.40;;
69319;SDS011;56467;53.502;49.248;2022-09-09T08:59:54;0.70;;;0.35;;
69319;SDS011;56467;53.502;49.248;2022-09-09T09:02:24;1.70;;;0.40;;
69319;SDS011;56467;53.502;49.248;2022-09-09T09:05:05;0.90;;;0.40;;
69319;SDS011;56467;53.502;49.248;2022-09-09T09:10:49;0.40;;;0.40;;
69319;SDS011;56467;53.502;49.248;2022-09-09T09:13:24;0.50;;;0.50;;
69319;SDS011;56467;53.502;49.248;2022-09-09T09:16:00;0.40;;;0.40;;
69319;SDS011;56467;53.502;49.248;2022-09-09T09:18:45;0.43;;;0.40;;
69319;SDS011;56467;53.502;49.248;2022-09-09T09:21:13;1.15;;;0.43;;
69319;SDS011;56467;53.502;49.248;2022-09-09T09:23:49;0.77;;;0.40;;
69319;SDS011;56467;53.502;49.248;2022-09-09T09:26:26;0.40;;;0.40;;
69319;SDS011;56467;53.502;49.248;2022-09-09T09:28:57;0.40;;;0.30;;
69319;SDS011;56467;53.502;49.248;2022-09-09T09:31:24;0.30;;;0.30;;
69319;SDS011;56467;53.502;49.248;2022-09-09T09:33:52;0.30;;;0.30;;
69319;SDS011;56467;53.502;49.248;2022-09-09T09:36:24;0.77;;;0.30;;
69319;SDS011;56467;53.502;49.248;2022-09-09T09:38:59;0.28;;;0.28;;
69319;SDS011;56467;53.502;49.248;2022-09-09T09:44:02;0.30;;;0.30;;
69319;SDS011;56467;53.502;49.248;2022-09-09T09:46:29;0.82;;;0.40;;
69319;SDS011;56467;53.502;49.248;2022-09-09T09:48:59;0.38;;;0.30;;
69319;SDS011;56467;53.502;49.248;2022-09-09T09:51:27;0.30;;;0.30;;
69319;SDS011;56467;53.502;49.248;2022-09-09T09:54:02;0.40;;;0.30;;
69319;SDS011;56467;53.502;49.248;2022-09-09T09:56:44;1.00;;;0.43;;
69319;SDS011;56467;53.502;49.248;2022-09-09T09:59:23;2.22;;;0.50;;
69319;SDS011;56467;53.502;49.248;2022-09-09T10:02:36;0.90;;;0.40;;
69319;SDS011;56467;53.502;49.248;2022-09-09T10:07:28;1.17;;;0.70;;
69319;SDS011;56467;53.502;49.248;2022-09-09T10:09:55;2.05;;;0.73;;
69319;SDS011;56467;53.502;49.248;2022-09-09T10:15:18;3.63;;;0.63;;
69319;SDS011;56467;53.502;49.248;2022-09-09T10:23:36;0.95;;;0.50;;
69319;SDS011;56467;53.502;49.248;2022-09-09T10:26:28;0.90;;;0.40;;
69319;SDS011;56467;53.502;49.248;2022-09-09T10:36:51;1.17;;;0.30;;
69319;SDS011;56467;53.502;49.248;2022-09-09T10:39:31;1.58;;;0.40;;
69319;SDS011;56467;53.502;49.248;2022-09-09T10:42:04;1.67;;;0.40;;
69319;SDS011;56467;53.502;49.248;2022-09-09T10:47:25;0.43;;;0.40;;
69319;SDS011;56467;53.502;49.248;2022-09-09T10:55:35;0.55;;;0.20;;
69319;SDS011;56467;53.502;49.248;2022-09-09T10:58:02;0.88;;;0.38;;
69319;SDS011;56467;53.502;49.248;2022-09-09T11:00:42;1.15;;;0.30;;
69319;SDS011;56467;53.502;49.248;2022-09-09T11:03:18;0.43;;;0.30;;
69319;SDS011;56467;53.502;49.248;2022-09-09T11:05:55;0.52;;;0.30;;
69319;SDS011;56467;53.502;49.248;2022-09-09T11:08:28;1.30;;;0.35;;
69319;SDS011;56467;53.502;49.248;2022-09-09T11:13:30;0.85;;;0.25;;
69319;SDS011;56467;53.502;49.248;2022-09-09T11:16:12;0.20;;;0.13;;
69319;SDS011;56467;53.502;49.248;2022-09-09T11:18:48;1.38;;;0.20;;
69319;SDS011;56467;53.502;49.248;2022-09-09T11:21:28;1.27;;;0.50;;
69319;SDS011;56467;53.502;49.248;2022-09-09T11:24:06;0.38;;;0.25;;
69319;SDS011;56467;53.502;49.248;2022-09-09T11:26:51;0.60;;;0.32;;
69319;SDS011;56467;53.502;49.248;2022-09-09T11:29:45;0.60;;;0.28;;
69319;SDS011;56467;53.502;49.248;2022-09-09T11:32:52;0.50;;;0.20;;
69319;SDS011;56467;53.502;49.248;2022-09-09T11:39:42;0.38;;;0.17;;
69319;SDS011;56467;53.502;49.248;2022-09-09T11:42:15;0.52;;;0.20;;
69319;SDS011;56467;53.502;49.248;2022-09-09T11:44:45;0.90;;;0.30;;
69319;SDS011;56467;53.502;49.248;2022-09-09T11:49:47;2.03;;;0.40;;
69319;SDS011;56467;53.502;49.248;2022-09-09T11:52:24;0.30;;;0.30;;
69319;SDS011;56467;53.502;49.248;2022-09-09T11:55:07;0.30;;;0.30;;
69319;SDS011;56467;53.502;49.248;2022-09-09T11:57:37;1.58;;;0.30;;
69319;SDS011;56467;53.502;49.248;2022-09-09T12:00:04;2.00;;;0.50;;
69319;SDS011;56467;53.502;49.248;2022-09-09T12:02:31;0.77;;;0.30;;
69319;SDS011;56467;53.502;49.248;2022-09-09T12:05:07;0.98;;;0.20;;
69319;SDS011;56467;53.502;49.248;2022-09-09T12:07:49;0.30;;;0.30;;
69319;SDS011;56467;53.502;49.248;2022-09-09T12:10:26;0.45;;;0.30;;
69319;SDS011;56467;53.502;49.248;2022-09-09T12:12:55;0.15;;;0.13;;
69319;SDS011;56467;53.502;49.248;2022-09-09T12:15:23;0.20;;;0.20;;
69319;SDS011;56467;53.502;49.248;2022-09-09T12:17:53;0.20;;;0.20;;
69319;SDS011;56467;53.502;49.248;2022-09-09T12:23:21;0.15;;;0.15;;
69319;SDS011;56467;53.502;49.248;2022-09-09T12:26:12;0.40;;;0.30;;
69319;SDS011;56467;53.502;49.248;2022-09-09T12:31:26;0.20;;;0.10;;
69319;SDS011;56467;53.502;49.248;2022-09-09T12:37:02;0.30;;;0.20;;
69319;SDS011;56467;53.502;49.248;2022-09-09T12:40:05;0.40;;;0.30;;
69319;SDS011;56467;53.502;49.248;2022-09-09T12:44:54;0.10;;;0.10;;
69319;SDS011;56467;53.502;49.248;2022-09-09T12:50:01;0.50;;;0.20;;
69319;SDS011;56467;53.502;49.248;2022-09-09T12:52:31;1.17;;;0.22;;
69319;SDS011;56467;53.502;49.248;2022-09-09T12:55:01;1.23;;;0.22;;
69319;SDS011;56467;53.502;49.248;2022-09-09T12:57:33;1.20;;;0.30;;
69319;SDS011;56467;53.502;49.248;2022-09-09T13:00:05;0.45;;;0.20;;
69319;SDS011;56467;53.502;49.248;2022-09-09T13:02:34;0.20;;;0.20;;
69319;SDS011;56467;53.502;49.248;2022-09-09T13:05:34;0.77;;;0.20;;
69319;SDS011;56467;53.502;49.248;2022-09-09T13:08:09;0.20;;;0.20;;
69319;SDS011;56467;53.502;49.248;2022-09-09T13:10:41;0.50;;;0.30;;
69319;SDS011;56467;53.502;49.248;2022-09-09T13:13:18;0.15;;;0.13;;
69319;SDS011;56467;53.502;49.248;2022-09-09T13:15:50;0.25;;;0.10;;
69319;SDS011;56467;53.502;49.248;2022-09-09T13:18:23;0.43;;;0.20;;
69319;SDS011;56467;53.502;49.248;2022-09-09T13:21:09;0.52;;;0.20;;
69319;SDS011;56467;53.502;49.248;2022-09-09T13:23:36;0.57;;;0.17;;
69319;SDS011;56467;53.502;49.248;2022-09-09T13:28:31;0.85;;;0.30;;
69319;SDS011;56467;53.502;49.248;2022-09-09T13:31:02;0.98;;;0.20;;
69319;SDS011;56467;53.502;49.248;2022-09-09T13:33:38;1.70;;;0.30;;
69319;SDS011;56467;53.502;49.248;2022-09-09T13:36:08;0.30;;;0.20;;
69319;SDS011;56467;53.502;49.248;2022-09-09T13:38:40;0.65;;;0.20;;
69319;SDS011;56467;53.502;49.248;2022-09-09T13:41:24;0.52;;;0.30;;
69319;SDS011;56467;53.502;49.248;2022-09-09T13:44:01;0.30;;;0.20;;
69319;SDS011;56467;53.502;49.248;2022-09-09T13:51:43;1.60;;;0.43;;
69319;SDS011;56467;53.502;49.248;2022-09-09T13:54:12;0.95;;;0.30;;
69319;SDS011;56467;53.502;49.248;2022-09-09T13:56:40;0.75;;;0.30;;
69319;SDS011;56467;53.502;49.248;2022-09-09T13:59:11;0.38;;;0.20;;
69319;SDS011;56467;53.502;49.248;2022-09-09T14:01:39;0.43;;;0.30;;
69319;SDS011;56467;53.502;49.248;2022-09-09T14:04:05;0.85;;;0.30;;
69319;SDS011;56467;53.502;49.248;2022-09-09T14:06:32;0.65;;;0.30;;
69319;SDS011;56467;53.502;49.248;2022-09-09T14:09:03;0.98;;;0.30;;
69319;SDS011;56467;53.502;49.248;2022-09-09T14:11:30;0.70;;;0.30;;
69319;SDS011;56467;53.502;49.248;2022-09-09T14:13:56;0.40;;;0.20;;
69319;SDS011;56467;53.502;49.248;2022-09-09T14:16:22;1.80;;;0.47;;
69319;SDS011;56467;53.502;49.248;2022-09-09T14:18:47;2.22;;;1.08;;
69319;SDS011;56467;53.502;49.248;2022-09-09T14:21:14;6.00;;;1.90;;
69319;SDS011;56467;53.502;49.248;2022-09-09T14:23:40;9.07;;;2.25;;
69319;SDS011;56467;53.502;49.248;2022-09-09T14:26:07;8.75;;;2.53;;
69319;SDS011;56467;53.502;49.248;2022-09-09T14:28:34;8.48;;;2.42;;
69319;SDS011;56467;53.502;49.248;2022-09-09T14:31:01;8.90;;;2.20;;
69319;SDS011;56467;53.502;49.248;2022-09-09T14:33:29;8.73;;;2.17;;
69319;SDS011;56467;53.502;49.248;2022-09-09T14:35:56;7.80;;;2.10;;
69319;SDS011;56467;53.502;49.248;2022-09-09T14:38:22;7.10;;;1.98;;
69319;SDS011;56467;53.502;49.248;2022-09-09T14:40:48;5.82;;;1.95;;
69319;SDS011;56467;53.502;49.248;2022-09-09T14:43:14;5.82;;;1.88;;
69319;SDS011;56467;53.502;49.248;2022-09-09T14:45:40;5.55;;;1.65;;
69319;SDS011;56467;53.502;49.248;2022-09-09T14:48:05;4.93;;;1.70;;
69319;SDS011;56467;53.502;49.248;2022-09-09T14:50:31;4.72;;;1.80;;
69319;SDS011;56467;53.502;49.248;2022-09-09T14:52:57;5.85;;;1.80;;
69319;SDS011;56467;53.502;49.248;2022-09-09T14:55:23;6.03;;;2.13;;
69319;SDS011;56467;53.502;49.248;2022-09-09T14:57:49;7.22;;;3.13;;
69319;SDS011;56467;53.502;49.248;2022-09-09T15:00:15;6.68;;;2.97;;
69319;SDS011;56467;53.502;49.248;2022-09-09T15:02:41;5.47;;;2.58;;
69319;SDS011;56467;53.502;49.248;2022-09-09T15:05:06;7.43;;;3.33;;
69319;SDS011;56467;53.502;49.248;2022-09-09T15:07:33;5.70;;;2.35;;
69319;SDS011;56467;53.502;49.248;2022-09-09T15:09:59;6.05;;;2.55;;
69319;SDS011;56467;53.502;49.248;2022-09-09T15:12:25;6.65;;;3.10;;
69319;SDS011;56467;53.502;49.248;2022-09-09T15:14:53;15.38;;;7.53;;
69319;SDS011;56467;53.502;49.248;2022-09-09T15:17:20;11.48;;;6.00;;
69319;SDS011;56467;53.502;49.248;2022-09-09T15:19:46;12.13;;;5.15;;
69319;SDS011;56467;53.502;49.248;2022-09-09T15:22:11;9.93;;;4.95;;
69319;SDS011;56467;53.502;49.248;2022-09-09T15:24:37;8.52;;;4.00;;
69319;SDS011;56467;53.502;49.248;2022-09-09T15:27:03;10.18;;;4.50;;
69319;SDS011;56467;53.502;49.248;2022-09-09T15:29:28;8.13;;;3.85;;
69319;SDS011;56467;53.502;49.248;2022-09-09T15:31:54;7.32;;;3.30;;
69319;SDS011;56467;53.502;49.248;2022-09-09T15:34:23;7.15;;;3.25;;
69319;SDS011;56467;53.502;49.248;2022-09-09T15:36:48;8.43;;;3.42;;
69319;SDS011;56467;53.502;49.248;2022-09-09T15:39:15;6.90;;;2.83;;
69319;SDS011;56467;53.502;49.248;2022-09-09T15:41:43;6.38;;;3.03;;
69319;SDS011;56467;53.502;49.248;2022-09-09T15:44:13;6.18;;;3.20;;
69319;SDS011;56467;53.502;49.248;2022-09-09T15:46:40;7.45;;;2.90;;
69319;SDS011;56467;53.502;49.248;2022-09-09T15:51:50;6.40;;;2.72;;
69319;SDS011;56467;53.502;49.248;2022-09-09T15:54:24;4.53;;;2.50;;
69319;SDS011;56467;53.502;49.248;2022-09-09T15:56:52;5.45;;;2.60;;
69319;SDS011;56467;53.502;49.248;2022-09-09T15:59:23;4.90;;;2.60;;
69319;SDS011;56467;53.502;49.248;2022-09-09T16:01:50;4.35;;;2.22;;
69319;SDS011;56467;53.502;49.248;2022-09-09T16:04:19;4.03;;;2.13;;
69319;SDS011;56467;53.502;49.248;2022-09-09T16:07:04;3.80;;;2.08;;
69319;SDS011;56467;53.502;49.248;2022-09-09T16:09:31;4.10;;;2.30;;
69319;SDS011;56467;53.502;49.248;2022-09-09T16:11:57;3.08;;;1.90;;
69319;SDS011;56467;53.502;49.248;2022-09-09T16:14:26;3.60;;;2.13;;
69319;SDS011;56467;53.502;49.248;2022-09-09T16:16:52;4.47;;;2.00;;
69319;SDS011;56467;53.502;49.248;2022-09-09T16:19:18;3.53;;;2.00;;
69319;SDS011;56467;53.502;49.248;2022-09-09T16:21:45;4.07;;;1.88;;
69319;SDS011;56467;53.502;49.248;2022-09-09T16:24:13;3.72;;;1.90;;
69319;SDS011;56467;53.502;49.248;2022-09-09T16:26:42;3.95;;;2.00;;
69319;SDS011;56467;53.502;49.248;2022-09-09T16:29:10;3.15;;;1.80;;
69319;SDS011;56467;53.502;49.248;2022-09-09T16:31:39;3.30;;;1.73;;
69319;SDS011;56467;53.502;49.248;2022-09-09T16:34:06;3.33;;;1.60;;
69319;SDS011;56467;53.502;49.248;2022-09-09T16:36:33;4.38;;;1.83;;
69319;SDS011;56467;53.502;49.248;2022-09-09T16:39:05;2.05;;;1.38;;
69319;SDS011;56467;53.502;49.248;2022-09-09T16:41:34;3.80;;;2.13;;
69319;SDS011;56467;53.502;49.248;2022-09-09T16:44:01;6.35;;;3.20;;
69319;SDS011;56467;53.502;49.248;2022-09-09T16:46:32;5.45;;;3.03;;
69319;SDS011;56467;53.502;49.248;2022-09-09T16:49:00;4.93;;;2.60;;
69319;SDS011;56467;53.502;49.248;2022-09-09T16:51:28;5.38;;;2.58;;
69319;SDS011;56467;53.502;49.248;2022-09-09T16:53:56;3.67;;;2.20;;
69319;SDS011;56467;53.502;49.248;2022-09-09T16:56:24;4.30;;;2.30;;
69319;SDS011;56467;53.502;49.248;2022-09-09T16:58:56;3.13;;;1.77;;
69319;SDS011;56467;53.502;49.248;2022-09-09T17:01:24;3.15;;;1.77;;